Time;durP1;ratioP1;P1;durP2;ratioP2;P2;SDS_P1;SDS_P2;PMS_P1;PMS_P2;Temp;Humidity;BMP_temperature;BMP_pressure;BME280_temperature;BME280_humidity;BME280_pressure;Samples;Min_cycle;Max_cycle;Signal;HPM_P1;HPM_P2
2022/06/17 00:01:52;;;;;;;4.03;2.90;;;22.80;90.30;;;;;;5073971;28;20553;-82
2022/06/17 00:04:17;;;;;;;7.30;3.65;;;22.70;90.30;;;;;;5061470;28;20041;-82
2022/06/17 00:06:50;;;;;;;3.58;2.92;;;22.70;90.30;;;;;;5061533;28;20800;-82
2022/06/17 00:09:19;;;;;;;4.88;2.42;;;22.70;90.30;;;;;;5059347;28;20519;-82
2022/06/17 00:11:45;;;;;;;5.38;2.80;;;22.70;90.30;;;;;;5059277;28;20040;-81
2022/06/17 00:14:17;;;;;;;4.10;2.42;;;22.70;90.40;;;;;;5074552;28;20083;-82
2022/06/17 00:16:43;;;;;;;7.70;3.13;;;22.60;90.50;;;;;;5061850;28;20052;-82
2022/06/17 00:19:10;;;;;;;5.57;2.90;;;22.60;90.50;;;;;;5058673;28;20053;-82
2022/06/17 00:21:43;;;;;;;5.28;2.83;;;22.60;90.50;;;;;;5061442;28;20035;-82
2022/06/17 00:24:25;;;;;;;6.70;3.22;;;22.60;90.50;;;;;;5060039;28;20040;-82
2022/06/17 00:26:54;;;;;;;4.38;2.95;;;22.60;90.50;;;;;;5078988;28;20041;-82
2022/06/17 00:29:22;;;;;;;6.38;2.63;;;22.60;90.50;;;;;;5058863;28;20039;-82
2022/06/17 00:31:48;;;;;;;3.60;2.28;;;22.60;90.50;;;;;;5061160;28;20476;-82
2022/06/17 00:34:14;;;;;;;4.25;2.38;;;22.50;90.50;;;;;;5059650;28;20560;-82
2022/06/17 00:36:40;;;;;;;3.38;2.20;;;22.60;90.50;;;;;;5057523;28;20063;-82
2022/06/17 00:39:13;;;;;;;4.63;2.30;;;22.50;90.50;;;;;;5060750;28;20088;-82
2022/06/17 00:41:41;;;;;;;6.30;2.53;;;22.60;90.50;;;;;;5058577;28;20102;-82
2022/06/17 00:44:28;;;;;;;3.67;2.47;;;22.50;90.40;;;;;;5064488;28;20067;-82
2022/06/17 00:46:57;;;;;;;4.25;2.28;;;22.50;90.30;;;;;;5061838;28;20049;-82
2022/06/17 00:49:42;;;;;;;5.82;2.83;;;22.50;90.30;;;;;;5062496;28;20088;-82
2022/06/17 00:52:24;;;;;;;4.57;2.38;;;22.40;90.30;;;;;;5058875;28;20140;-82
2022/06/17 00:55:05;;;;;;;4.75;3.05;;;22.40;90.30;;;;;;5079108;28;20917;-82
2022/06/17 00:57:38;;;;;;;3.38;2.55;;;22.40;90.30;;;;;;5057421;28;20098;-82
2022/06/17 01:00:22;;;;;;;4.30;2.63;;;22.40;90.30;;;;;;5060916;28;20055;-82
2022/06/17 01:02:55;;;;;;;4.68;2.40;;;22.40;90.30;;;;;;5059136;28;20033;-82
2022/06/17 01:05:42;;;;;;;5.93;2.25;;;22.30;90.30;;;;;;5058464;28;20853;-82
2022/06/17 01:11:11;;;;;;;5.65;2.50;;;22.30;90.40;;;;;;5062226;28;20586;-82
2022/06/17 01:13:37;;;;;;;4.05;2.60;;;22.30;90.40;;;;;;5059981;28;20033;-82
2022/06/17 01:16:04;;;;;;;3.65;2.63;;;22.30;90.40;;;;;;5062036;28;20067;-82
2022/06/17 01:18:34;;;;;;;5.18;2.75;;;22.30;90.40;;;;;;5058642;28;20514;-82
2022/06/17 01:21:05;;;;;;;2.67;2.03;;;22.30;90.40;;;;;;5057067;28;20552;-82
2022/06/17 01:23:31;;;;;;;8.45;2.78;;;22.30;90.40;;;;;;5060938;28;20045;-82
2022/06/17 01:25:57;;;;;;;4.55;2.65;;;22.30;90.40;;;;;;5064759;28;20202;-82
2022/06/17 01:28:23;;;;;;;6.20;2.45;;;22.20;90.50;;;;;;5060834;28;20731;-82
2022/06/17 01:30:55;;;;;;;6.05;2.90;;;22.20;90.50;;;;;;5057779;28;20049;-82
2022/06/17 01:33:31;;;;;;;4.30;2.83;;;22.20;90.50;;;;;;5059441;28;20041;-82
2022/06/17 01:36:21;;;;;;;5.15;2.28;;;22.20;90.50;;;;;;5060073;28;20048;-82
2022/06/17 01:38:50;;;;;;;8.52;3.08;;;22.10;90.40;;;;;;5060700;28;20051;-82
2022/06/17 01:41:19;;;;;;;4.95;2.88;;;22.10;90.50;;;;;;5060551;28;20045;-82
2022/06/17 01:43:53;;;;;;;6.30;2.60;;;22.10;90.60;;;;;;5062815;28;20052;-83
2022/06/17 01:46:32;;;;;;;6.82;2.67;;;22.10;90.70;;;;;;5060414;28;20625;-82
2022/06/17 01:49:06;;;;;;;4.93;2.80;;;22.10;90.70;;;;;;5060177;28;20041;-83
2022/06/17 01:51:36;;;;;;;4.03;2.90;;;22.00;90.80;;;;;;5063084;28;20071;-82
2022/06/17 01:54:08;;;;;;;6.07;3.03;;;22.00;90.90;;;;;;5063867;28;20129;-82
2022/06/17 01:56:35;;;;;;;;;;;22.00;91.00;;;;;;5066747;28;20114;-83
2022/06/17 01:59:08;;;;;;;7.35;2.58;;;22.00;91.00;;;;;;5066479;28;19972;-81
2022/06/17 02:01:36;;;;;;;8.07;3.30;;;21.90;91.10;;;;;;5085059;28;20049;-81
2022/06/17 02:04:09;;;;;;;4.95;4.25;;;21.90;91.20;;;;;;5064369;28;20100;-82
2022/06/17 02:06:46;;;;;;;4.68;2.95;;;21.90;91.40;;;;;;5067431;28;20041;-82
2022/06/17 02:09:12;;;;;;;6.80;2.92;;;21.90;91.40;;;;;;5068333;28;20136;-82
2022/06/17 02:11:39;;;;;;;4.47;2.88;;;21.80;91.50;;;;;;5066431;28;20055;-82
2022/06/17 02:14:07;;;;;;;5.03;3.13;;;21.80;91.60;;;;;;5081019;28;20067;-82
2022/06/17 02:16:42;;;;;;;4.63;2.70;;;21.80;91.70;;;;;;5065264;28;20483;-82
2022/06/17 02:19:09;;;;;;;3.88;2.55;;;21.80;91.80;;;;;;5064887;28;20040;-83
2022/06/17 02:21:46;;;;;;;6.32;3.20;;;21.80;91.80;;;;;;5078711;28;20498;-82
2022/06/17 02:24:13;;;;;;;4.93;2.50;;;21.80;91.70;;;;;;5063847;28;20033;-82
2022/06/17 02:26:42;;;;;;;5.50;3.15;;;21.80;91.70;;;;;;5064357;28;20037;-81
2022/06/17 02:29:11;;;;;;;5.55;2.70;;;21.80;91.60;;;;;;5063861;28;20049;-81
2022/06/17 02:31:38;;;;;;;5.07;3.13;;;21.80;91.50;;;;;;5076780;28;20446;-82
2022/06/17 02:34:07;;;;;;;5.80;2.80;;;21.70;91.40;;;;;;5066718;28;20136;-82
2022/06/17 02:36:45;;;;;;;5.18;3.17;;;21.70;91.40;;;;;;5062105;28;20396;-81
2022/06/17 02:39:13;;;;;;;5.88;2.70;;;21.80;91.40;;;;;;5066756;28;20052;-82
2022/06/17 02:41:40;;;;;;;4.78;2.67;;;21.70;91.30;;;;;;5064456;28;21718;-82
2022/06/17 02:44:14;;;;;;;4.65;3.08;;;21.70;91.30;;;;;;5065116;28;20049;-82
2022/06/17 02:46:42;;;;;;;4.22;2.55;;;21.70;91.30;;;;;;5064973;28;20087;-82
2022/06/17 02:49:25;;;;;;;6.43;2.78;;;21.70;91.40;;;;;;5062403;28;20052;-82
2022/06/17 02:51:51;;;;;;;5.07;3.42;;;21.70;91.40;;;;;;5060949;28;20431;-82
2022/06/17 02:54:33;;;;;;;6.93;2.85;;;21.70;91.50;;;;;;5066023;28;20400;-82
2022/06/17 02:57:01;;;;;;;4.85;3.22;;;21.70;91.50;;;;;;5064305;28;20055;-82
2022/06/17 03:00:11;;;;;;;7.65;3.83;;;21.60;91.50;;;;;;5063093;28;20147;-82
2022/06/17 03:02:49;;;;;;;4.57;2.55;;;21.60;91.60;;;;;;5035740;28;20147;-82
2022/06/17 03:05:22;;;;;;;5.72;2.58;;;21.70;91.70;;;;;;5044652;28;20048;-82
2022/06/17 03:07:49;;;;;;;6.32;3.10;;;21.60;91.70;;;;;;5048267;28;20044;-82
2022/06/17 03:10:24;;;;;;;6.82;3.33;;;21.60;91.70;;;;;;5078409;28;20489;-83
2022/06/17 03:13:04;;;;;;;4.90;3.10;;;21.70;91.80;;;;;;5066397;28;20542;-82
2022/06/17 03:15:30;;;;;;;7.38;3.00;;;21.60;91.80;;;;;;5061976;28;20515;-82
2022/06/17 03:17:56;;;;;;;7.40;3.25;;;21.60;91.80;;;;;;5063192;28;20182;-83
2022/06/17 03:20:28;;;;;;;5.45;3.10;;;21.60;91.80;;;;;;5065305;28;20537;-82
2022/06/17 03:23:03;;;;;;;5.63;2.63;;;21.60;91.80;;;;;;5063730;28;20048;-82
2022/06/17 03:25:32;;;;;;;4.20;2.70;;;21.50;91.80;;;;;;5062330;28;20049;-82
2022/06/17 03:28:02;;;;;;;3.17;2.70;;;21.50;91.80;;;;;;5066758;28;20033;-82
2022/06/17 03:30:33;;;;;;;4.25;2.85;;;21.50;91.80;;;;;;5064645;28;20048;-82
2022/06/17 03:33:23;;;;;;;5.38;3.80;;;21.50;91.80;;;;;;5064431;28;20056;-82
2022/06/17 03:35:53;;;;;;;3.83;2.53;;;21.50;91.80;;;;;;5061490;28;20584;-83
2022/06/17 03:38:39;;;;;;;5.20;3.45;;;21.40;91.80;;;;;;5066130;28;20040;-82
2022/06/17 03:41:35;;;;;;;5.57;2.88;;;21.40;91.80;;;;;;5064299;28;20065;-82
2022/06/17 03:44:28;;;;;;;5.55;3.72;;;21.40;91.80;;;;;;5061844;28;21281;-82
2022/06/17 03:47:05;;;;;;;4.55;2.90;;;21.40;91.70;;;;;;5064118;28;20060;-82
2022/06/17 03:49:41;;;;;;;9.20;3.40;;;21.40;91.80;;;;;;5065015;28;20075;-82
2022/06/17 03:52:38;;;;;;;4.00;2.97;;;21.30;91.70;;;;;;5064893;28;20045;-83
2022/06/17 03:55:05;;;;;;;3.88;2.65;;;21.30;91.70;;;;;;5079136;28;20045;-82
2022/06/17 03:57:32;;;;;;;6.03;3.00;;;21.30;91.70;;;;;;5062486;28;20205;-81
2022/06/17 03:59:58;;;;;;;5.38;3.05;;;21.30;91.70;;;;;;5061301;28;20438;-82
2022/06/17 04:02:29;;;;;;;4.43;2.78;;;21.30;91.70;;;;;;5061855;28;20047;-82
2022/06/17 04:04:56;;;;;;;5.07;2.87;;;21.30;91.60;;;;;;5059155;28;20555;-82
2022/06/17 04:07:22;;;;;;;6.35;3.17;;;21.30;91.60;;;;;;5076329;28;20048;-81
2022/06/17 04:09:54;;;;;;;5.45;2.83;;;21.30;91.70;;;;;;5062200;28;20040;-82
2022/06/17 04:12:27;;;;;;;5.43;3.05;;;21.20;91.70;;;;;;5063775;28;20093;-82
2022/06/17 04:14:55;;;;;;;6.00;3.00;;;21.20;91.70;;;;;;5062269;28;20143;-82
2022/06/17 04:17:43;;;;;;;5.13;3.13;;;21.20;91.80;;;;;;5061106;28;20044;-82
2022/06/17 04:20:30;;;;;;;5.20;2.55;;;21.20;91.80;;;;;;5060213;28;20072;-82
2022/06/17 04:23:18;;;;;;;5.53;3.25;;;21.20;91.80;;;;;;5059073;28;21856;-81
2022/06/17 04:26:15;;;;;;;5.72;3.53;;;21.10;91.70;;;;;;5060221;28;20057;-81
2022/06/17 04:28:58;;;;;;;9.95;3.90;;;21.20;91.80;;;;;;5063592;28;20048;-82
2022/06/17 04:31:27;;;;;;;5.07;2.70;;;21.10;91.90;;;;;;5063678;28;20667;-81
2022/06/17 04:34:04;;;;;;;8.65;3.17;;;21.10;91.90;;;;;;5061873;28;20155;-82
2022/06/17 04:36:40;;;;;;;4.78;3.55;;;21.10;92.00;;;;;;5058969;28;20047;-82
2022/06/17 04:39:24;;;;;;;3.97;3.15;;;21.00;92.00;;;;;;5063077;28;20060;-84
2022/06/17 04:41:53;;;;;;;3.75;2.67;;;21.20;92.00;;;;;;5075109;28;20132;-82
2022/06/17 04:44:19;;;;;;;5.75;2.80;;;21.20;92.00;;;;;;5061845;28;21275;-83
2022/06/17 04:46:53;;;;;;;3.53;2.50;;;21.20;92.00;;;;;;5053510;28;20075;-81
2022/06/17 04:49:25;;;;;;;6.35;3.15;;;21.20;91.90;;;;;;5056524;28;20044;-81
2022/06/17 04:51:58;;;;;;;7.53;3.80;;;21.30;91.90;;;;;;5059540;28;20581;-81
2022/06/17 04:54:25;;;;;;;4.55;3.53;;;21.20;91.90;;;;;;5063730;28;20073;-81
2022/06/17 04:56:52;;;;;;;4.75;2.83;;;21.20;91.90;;;;;;5059257;28;20037;-82
2022/06/17 04:59:30;;;;;;;3.58;2.70;;;21.30;92.20;;;;;;5077347;28;20045;-81
2022/06/17 05:01:57;;;;;;;3.45;2.72;;;21.30;91.90;;;;;;5061839;28;20040;-81
2022/06/17 05:04:25;;;;;;;5.22;2.53;;;21.30;91.90;;;;;;5059735;28;20160;-82
2022/06/17 05:06:51;;;;;;;8.07;2.75;;;21.30;91.90;;;;;;5060110;28;20642;-82
2022/06/17 05:09:20;;;;;;;6.03;2.63;;;21.30;91.90;;;;;;5059848;28;20037;-82
2022/06/17 05:11:48;;;;;;;4.95;3.38;;;21.30;91.90;;;;;;5065029;28;20347;-81
2022/06/17 05:14:21;;;;;;;5.13;3.05;;;21.30;91.90;;;;;;5062537;28;20114;-82
2022/06/17 05:16:47;;;;;;;5.82;3.22;;;21.30;92.00;;;;;;5060510;28;20084;-81
2022/06/17 05:19:12;;;;;;;6.10;3.38;;;21.40;92.00;;;;;;5059236;28;20412;-82
2022/06/17 05:21:38;;;;;;;6.18;3.28;;;21.40;92.00;;;;;;5076580;28;20452;-82
2022/06/17 05:24:05;;;;;;;6.25;3.67;;;21.40;92.00;;;;;;5060806;28;20075;-82
2022/06/17 05:26:30;;;;;;;3.95;2.95;;;21.40;92.00;;;;;;5075858;28;20044;-82
2022/06/17 05:28:56;;;;;;;4.43;2.88;;;21.40;92.00;;;;;;5064448;28;20513;-82
2022/06/17 05:31:26;;;;;;;5.88;3.63;;;21.50;92.00;;;;;;5062884;28;20045;-84
2022/06/17 05:33:52;;;;;;;5.05;3.22;;;21.50;91.90;;;;;;5058338;28;20065;-79
2022/06/17 05:36:18;;;;;;;8.75;2.80;;;21.50;91.90;;;;;;5061244;28;20106;-80
2022/06/17 05:38:44;;;;;;;8.43;3.10;;;21.50;91.90;;;;;;5063100;28;20037;-79
2022/06/17 05:41:20;;;;;;;7.20;3.45;;;21.50;91.90;;;;;;5064078;28;20083;-81
2022/06/17 05:43:46;;;;;;;7.07;3.50;;;21.50;91.90;;;;;;5060962;28;21039;-80
2022/06/17 05:46:12;;;;;;;4.32;2.58;;;21.60;92.00;;;;;;5061290;28;20059;-81
2022/06/17 05:48:38;;;;;;;7.03;3.05;;;21.60;92.00;;;;;;5079329;28;20530;-81
2022/06/17 05:51:04;;;;;;;6.53;4.75;;;21.60;92.00;;;;;;5061211;28;20051;-80
2022/06/17 05:53:30;;;;;;;7.43;2.72;;;21.60;91.90;;;;;;5063852;28;20521;-80
2022/06/17 05:55:58;;;;;;;6.90;3.35;;;21.70;92.00;;;;;;5064461;28;20041;-80
2022/06/17 05:58:25;;;;;;;3.75;2.65;;;21.60;92.00;;;;;;5065203;28;20060;-80
2022/06/17 06:00:51;;;;;;;6.55;2.70;;;21.70;92.00;;;;;;5060968;28;20489;-79
2022/06/17 06:03:20;;;;;;;8.38;2.88;;;21.70;92.00;;;;;;5064007;28;20040;-81
2022/06/17 06:05:46;;;;;;;9.32;3.38;;;21.70;92.00;;;;;;5061683;28;20064;-80
2022/06/17 06:08:12;;;;;;;13.05;4.35;;;21.70;92.00;;;;;;5046064;28;20044;-80
2022/06/17 06:10:37;;;;;;;8.75;3.13;;;21.70;92.00;;;;;;5057318;28;20055;-80
2022/06/17 06:13:04;;;;;;;11.50;3.25;;;21.70;92.00;;;;;;5059978;28;20537;-80
2022/06/17 06:15:38;;;;;;;6.75;2.80;;;21.70;92.10;;;;;;5064066;28;20120;-79
2022/06/17 06:18:12;;;;;;;5.78;3.20;;;21.80;92.20;;;;;;5080761;28;20055;-79
2022/06/17 06:20:38;;;;;;;4.57;2.60;;;21.80;92.20;;;;;;5063826;28;20102;-80
2022/06/17 06:23:04;;;;;;;6.03;2.60;;;21.90;92.20;;;;;;5063464;28;20102;-80
2022/06/17 06:25:30;;;;;;;3.95;3.10;;;21.90;92.20;;;;;;5064530;28;20052;-80
2022/06/17 06:27:56;;;;;;;6.68;3.15;;;21.80;92.10;;;;;;5062591;28;20045;-80
2022/06/17 06:30:29;;;;;;;6.22;3.35;;;21.90;92.20;;;;;;5058233;28;20447;-79
2022/06/17 06:32:58;;;;;;;5.70;2.53;;;21.90;92.20;;;;;;5060008;28;20045;-80
2022/06/17 06:35:27;;;;;;;4.70;2.83;;;21.90;92.30;;;;;;5077429;28;20135;-80
2022/06/17 06:37:53;;;;;;;5.35;2.53;;;22.00;92.30;;;;;;5059062;28;20033;-80
2022/06/17 06:40:20;;;;;;;7.35;3.45;;;22.00;92.30;;;;;;5058104;28;20049;-80
2022/06/17 06:42:47;;;;;;;9.82;2.72;;;22.00;92.30;;;;;;5061496;28;20462;-80
2022/06/17 06:45:17;;;;;;;4.47;2.22;;;22.00;92.40;;;;;;5054158;28;20091;-80
2022/06/17 06:47:45;;;;;;;4.47;2.97;;;22.00;92.40;;;;;;5059485;28;20189;-80
2022/06/17 06:50:16;;;;;;;4.05;2.90;;;22.10;92.40;;;;;;5061193;28;20044;-80
2022/06/17 06:52:42;;;;;;;4.72;2.65;;;22.10;92.40;;;;;;5064783;28;20047;-80
2022/06/17 06:55:08;;;;;;;6.53;2.63;;;22.10;92.40;;;;;;5061734;28;20079;-80
2022/06/17 06:57:34;;;;;;;6.22;2.90;;;22.10;92.40;;;;;;5066293;28;20083;-79
2022/06/17 07:00:11;;;;;;;6.10;3.40;;;22.10;92.40;;;;;;5064445;28;20525;-80
2022/06/17 07:02:37;;;;;;;3.60;2.83;;;22.10;92.40;;;;;;5065997;28;20499;-79
2022/06/17 07:05:03;;;;;;;6.55;3.97;;;22.20;92.40;;;;;;5066596;28;20040;-79
2022/06/17 07:07:29;;;;;;;4.13;2.85;;;22.20;92.40;;;;;;5063486;28;20052;-80
2022/06/17 07:09:55;;;;;;;4.20;2.70;;;22.20;92.40;;;;;;5063428;28;20037;-80
2022/06/17 07:12:20;;;;;;;4.18;2.88;;;22.20;92.40;;;;;;5081690;27;20576;-80
2022/06/17 07:14:46;;;;;;;6.18;2.55;;;22.20;92.40;;;;;;5063397;28;20045;-80
2022/06/17 07:17:12;;;;;;;6.38;2.70;;;22.30;92.40;;;;;;5064271;28;20057;-80
2022/06/17 07:19:37;;;;;;;5.65;2.80;;;22.30;92.40;;;;;;5063780;28;20049;-80
2022/06/17 07:22:03;;;;;;;7.53;2.85;;;22.30;92.50;;;;;;5065285;28;20063;-80
2022/06/17 07:24:29;;;;;;;7.85;3.33;;;22.30;92.50;;;;;;5061133;28;20056;-80
2022/06/17 07:26:55;;;;;;;5.78;2.40;;;22.30;92.60;;;;;;5064879;28;20611;-81
2022/06/17 07:29:21;;;;;;;8.40;3.25;;;22.30;92.60;;;;;;5063789;28;20049;-80
2022/06/17 07:31:47;;;;;;;6.53;2.47;;;22.40;92.60;;;;;;5065694;28;20044;-80
2022/06/17 07:34:12;;;;;;;4.20;2.70;;;22.40;92.60;;;;;;5062002;28;20108;-80
2022/06/17 07:42:07;;;;;;;6.15;3.72;;;22.50;92.70;;;;;;5065539;28;20061;-80
2022/06/17 07:44:35;;;;;;;6.45;2.40;;;22.50;92.70;;;;;;5063239;28;20091;-80
2022/06/17 07:47:01;;;;;;;3.30;2.75;;;22.50;92.70;;;;;;5061386;28;20203;-80
2022/06/17 07:49:27;;;;;;;6.43;3.10;;;22.50;92.70;;;;;;5065385;28;20045;-80
2022/06/17 07:51:53;;;;;;;7.05;3.50;;;22.60;92.80;;;;;;5047256;28;20044;-80
2022/06/17 07:54:19;;;;;;;4.05;2.63;;;22.60;92.80;;;;;;5062434;28;20167;-80
2022/06/17 07:56:45;;;;;;;3.60;2.53;;;22.60;92.90;;;;;;5062384;28;20125;-80
2022/06/17 07:59:11;;;;;;;5.57;2.72;;;22.60;92.90;;;;;;5058628;28;20095;-80
2022/06/17 08:01:37;;;;;;;6.13;3.47;;;22.70;92.90;;;;;;5062821;28;20044;-80
2022/06/17 08:04:03;;;;;;;4.88;2.78;;;22.70;93.00;;;;;;5063944;28;20699;-80
2022/06/17 08:06:28;;;;;;;5.70;3.30;;;22.70;93.10;;;;;;5063557;28;20040;-80
2022/06/17 08:08:54;;;;;;;4.25;2.95;;;22.80;93.10;;;;;;5064256;28;20033;-80
2022/06/17 08:11:20;;;;;;;5.43;2.65;;;22.90;93.10;;;;;;5064257;28;20048;-80
2022/06/17 08:13:46;;;;;;;6.70;2.97;;;22.90;93.10;;;;;;5062006;28;20759;-79
2022/06/17 08:16:14;;;;;;;6.45;2.72;;;22.90;93.20;;;;;;5064256;28;20037;-79
2022/06/17 08:18:40;;;;;;;7.97;3.45;;;22.90;93.20;;;;;;5062168;28;20091;-80
2022/06/17 08:21:06;;;;;;;6.50;2.50;;;23.00;93.20;;;;;;5063493;28;20601;-79
2022/06/17 08:23:32;;;;;;;6.97;2.30;;;23.00;93.20;;;;;;5062921;28;20049;-80
2022/06/17 08:25:58;;;;;;;9.73;3.15;;;23.00;93.10;;;;;;5064576;28;20107;-79
2022/06/17 08:28:25;;;;;;;4.47;2.38;;;23.00;93.10;;;;;;5065685;28;20821;-80
2022/06/17 08:30:53;;;;;;;5.00;2.78;;;23.00;93.10;;;;;;5062414;28;20042;-80
2022/06/17 08:33:27;;;;;;;6.10;2.60;;;23.10;93.10;;;;;;5063484;28;20096;-80
2022/06/17 08:35:54;;;;;;;5.28;2.50;;;23.10;93.10;;;;;;5063754;28;20048;-79
2022/06/17 08:38:29;;;;;;;5.43;2.75;;;23.10;93.00;;;;;;5062872;28;20390;-79
2022/06/17 08:41:09;;;;;;;5.72;2.35;;;23.10;93.00;;;;;;5064265;28;20036;-80
2022/06/17 08:43:48;;;;;;;6.18;2.70;;;23.20;93.00;;;;;;5065363;28;20060;-80
2022/06/17 08:46:55;;;;;;;5.85;2.42;;;23.20;92.90;;;;;;5065906;28;20036;-80
2022/06/17 08:49:37;;;;;;;5.60;3.42;;;23.30;92.90;;;;;;5064817;28;20049;-80
2022/06/17 08:52:17;;;;;;;3.42;2.53;;;23.20;92.80;;;;;;5062241;28;20044;-80
2022/06/17 08:55:01;;;;;;;2.90;2.35;;;23.30;92.80;;;;;;5059399;28;20091;-80
2022/06/17 08:57:43;;;;;;;3.40;2.10;;;23.30;92.80;;;;;;5065012;28;20083;-80
2022/06/17 09:00:13;;;;;;;4.43;2.65;;;23.30;92.80;;;;;;5064305;28;20569;-80
2022/06/17 09:02:48;;;;;;;3.97;2.33;;;23.40;92.80;;;;;;5064793;28;20661;-80
2022/06/17 09:05:32;;;;;;;14.90;3.63;;;23.40;92.80;;;;;;5063397;28;20056;-81
2022/06/17 09:08:01;;;;;;;4.65;2.22;;;23.40;92.70;;;;;;5063357;28;20068;-80
2022/06/17 09:10:32;;;;;;;8.20;2.83;;;23.50;92.70;;;;;;5063897;28;20041;-81
2022/06/17 09:12:57;;;;;;;5.18;2.70;;;23.50;92.70;;;;;;5062369;28;20053;-80
2022/06/17 09:15:35;;;;;;;6.70;3.78;;;23.50;92.60;;;;;;5061814;28;20057;-80
2022/06/17 09:18:18;;;;;;;6.05;2.78;;;23.50;92.60;;;;;;5061618;28;20056;-79
2022/06/17 09:20:47;;;;;;;7.95;2.28;;;23.60;92.60;;;;;;5064911;28;20041;-81
2022/06/17 09:23:19;;;;;;;5.93;2.55;;;23.60;92.50;;;;;;5063535;28;21090;-80
2022/06/17 09:25:47;;;;;;;6.22;2.22;;;23.60;92.40;;;;;;5063033;28;20049;-81
2022/06/17 09:28:37;;;;;;;2.80;2.22;;;23.60;92.30;;;;;;5062179;28;20045;-80
2022/06/17 09:31:17;;;;;;;6.78;3.15;;;23.70;92.30;;;;;;5063113;28;20068;-80
2022/06/17 09:33:49;;;;;;;4.25;2.60;;;23.70;92.20;;;;;;5063816;28;20034;-80
2022/06/17 09:36:38;;;;;;;5.18;2.58;;;23.70;92.10;;;;;;5077631;28;20228;-80
2022/06/17 09:39:09;;;;;;;5.03;2.80;;;23.70;92.10;;;;;;5062219;28;20816;-80
2022/06/17 09:41:50;;;;;;;3.50;2.13;;;23.80;92.00;;;;;;5062705;28;20045;-80
2022/06/17 09:44:20;;;;;;;4.07;2.35;;;23.80;91.90;;;;;;5061649;28;20052;-80
2022/06/17 09:47:04;;;;;;;7.70;2.88;;;23.80;91.90;;;;;;5063080;28;20245;-80
2022/06/17 09:49:49;;;;;;;3.95;2.40;;;23.90;91.80;;;;;;5063564;28;20049;-80
2022/06/17 09:52:21;;;;;;;4.05;2.63;;;23.90;91.80;;;;;;5064670;28;20040;-80
2022/06/17 09:55:16;;;;;;;3.75;2.60;;;23.90;92.00;;;;;;5061060;28;20056;-80
2022/06/17 09:58:08;;;;;;;5.55;3.30;;;24.00;91.50;;;;;;5058132;28;20056;-80
2022/06/17 10:00:43;;;;;;;4.20;2.33;;;24.00;91.50;;;;;;5062976;28;20049;-80
2022/06/17 10:03:16;;;;;;;6.00;2.72;;;24.10;91.50;;;;;;5060850;28;20534;-80
2022/06/17 10:06:11;;;;;;;3.83;2.33;;;24.10;91.40;;;;;;5061800;28;20618;-81
2022/06/17 10:09:05;;;;;;;4.93;2.70;;;24.20;91.40;;;;;;5063427;28;20750;-80
2022/06/17 10:11:40;;;;;;;3.60;1.80;;;24.20;91.10;;;;;;5058548;28;20056;-82
2022/06/17 10:14:12;;;;;;;4.75;2.25;;;24.20;91.00;;;;;;5061556;28;20040;-80
2022/06/17 10:19:50;;;;;;;4.57;2.97;;;24.20;91.00;;;;;;5066070;28;20045;-80
2022/06/17 10:22:34;;;;;;;;;;;24.30;91.00;;;;;;5082235;28;20121;-80
2022/06/17 10:25:21;;;;;;;3.08;2.20;;;24.30;91.00;;;;;;5079518;28;20516;-85
2022/06/17 10:28:06;;;;;;;3.17;2.20;;;24.10;90.80;;;;;;5064037;28;20048;-81
2022/06/17 10:30:43;;;;;;;5.78;2.65;;;24.40;90.70;;;;;;5065795;28;20612;-83
2022/06/17 10:33:13;;;;;;;5.65;2.55;;;24.40;90.50;;;;;;5065693;28;20041;-81
2022/06/17 10:35:41;;;;;;;5.13;2.75;;;24.50;90.50;;;;;;5066187;28;20068;-81
2022/06/17 10:38:10;;;;;;;4.53;2.30;;;24.50;90.40;;;;;;5063193;28;20130;-81
2022/06/17 10:40:38;;;;;;;5.00;2.17;;;24.50;90.30;;;;;;5066859;28;20073;-82
2022/06/17 10:43:10;;;;;;;3.92;2.28;;;24.60;90.20;;;;;;5061275;28;20175;-81
2022/06/17 10:45:36;;;;;;;4.03;2.67;;;24.60;90.00;;;;;;5065678;28;20094;-81
2022/06/17 10:48:23;;;;;;;4.22;3.10;;;24.60;90.00;;;;;;5065676;28;20076;-81
2022/06/17 10:50:49;;;;;;;3.97;2.25;;;24.70;89.90;;;;;;5081568;28;20080;-81
2022/06/17 10:53:21;;;;;;;4.72;2.40;;;24.70;89.60;;;;;;5065182;28;20076;-81
2022/06/17 10:55:55;;;;;;;5.70;3.03;;;24.70;89.60;;;;;;5065398;28;20041;-81
2022/06/17 10:58:24;;;;;;;3.42;2.35;;;24.80;88.90;;;;;;5063808;28;20052;-81
2022/06/17 11:01:03;;;;;;;3.58;2.53;;;24.80;88.90;;;;;;5061628;28;20049;-82
2022/06/17 11:03:29;;;;;;;7.35;2.65;;;24.80;88.70;;;;;;5059576;28;20103;-81
2022/06/17 11:05:59;;;;;;;4.03;2.33;;;24.90;88.80;;;;;;5063596;28;20563;-80
2022/06/17 11:08:31;;;;;;;6.32;2.17;;;24.90;88.70;;;;;;5063747;28;20502;-81
2022/06/17 11:12:02;;;;;;;4.63;2.78;;;25.00;88.60;;;;;;5061051;28;20041;-80
2022/06/17 11:13:45;;;;;;;3.28;2.42;;;25.00;88.30;;;;;;5063825;28;20120;-81
2022/06/17 11:16:17;;;;;;;2.85;1.90;;;25.00;88.30;;;;;;5062836;28;20082;-81
2022/06/17 11:18:55;;;;;;;2.78;2.20;;;25.10;88.20;;;;;;5065493;28;20048;-81
2022/06/17 11:21:27;;;;;;;3.03;2.03;;;25.10;88.00;;;;;;5064806;28;20107;-81
2022/06/17 11:23:57;;;;;;;2.45;2.00;;;25.10;87.60;;;;;;5066119;28;20037;-81
2022/06/17 11:26:30;;;;;;;4.97;2.30;;;25.10;87.30;;;;;;5061716;28;20040;-81
2022/06/17 11:28:59;;;;;;;4.80;2.53;;;25.20;87.40;;;;;;5065270;28;20043;-81
2022/06/17 11:31:28;;;;;;;4.25;1.83;;;25.30;87.60;;;;;;5065451;28;20747;-81
2022/06/17 11:33:53;;;;;;;4.75;2.13;;;25.30;87.60;;;;;;5067167;28;20118;-81
2022/06/17 11:36:23;;;;;;;5.45;2.20;;;25.30;87.60;;;;;;5065942;28;20044;-80
2022/06/17 11:38:50;;;;;;;4.57;2.40;;;25.30;87.40;;;;;;5064824;28;20534;-81
2022/06/17 11:41:27;;;;;;;5.78;2.45;;;25.30;87.30;;;;;;5065701;28;20593;-81
2022/06/17 11:43:56;;;;;;;4.55;2.10;;;25.40;87.40;;;;;;5057974;28;20045;-81
2022/06/17 11:46:32;;;;;;;4.53;2.45;;;25.30;87.40;;;;;;5063588;28;20059;-84
2022/06/17 11:49:13;;;;;;;3.00;2.15;;;25.50;87.00;;;;;;5062186;28;20098;-78
2022/06/17 11:51:47;;;;;;;4.05;2.28;;;25.50;86.80;;;;;;5080907;28;20045;-78
2022/06/17 11:54:31;;;;;;;4.68;2.30;;;25.50;86.90;;;;;;5062231;28;20029;-78
2022/06/17 11:56:59;;;;;;;4.20;2.15;;;25.60;86.90;;;;;;5063155;28;20093;-81
2022/06/17 11:59:31;;;;;;;4.07;2.42;;;25.60;87.10;;;;;;5062967;28;20045;-81
2022/06/17 12:01:57;;;;;;;2.97;2.42;;;25.60;87.40;;;;;;5063576;28;20573;-80
2022/06/17 12:04:41;;;;;;;4.47;2.17;;;25.70;87.50;;;;;;5060733;28;20056;-81
2022/06/17 12:07:45;;;;;;;4.53;2.13;;;25.70;87.30;;;;;;5079487;28;20514;-81
2022/06/17 12:10:37;;;;;;;4.15;2.42;;;25.70;87.10;;;;;;5065400;28;20450;-81
2022/06/17 12:13:19;;;;;;;3.55;1.92;;;25.90;87.10;;;;;;5075982;28;20135;-81
2022/06/17 12:16:08;;;;;;;;;;;25.90;86.90;;;;;;5064523;28;20037;-81
2022/06/17 12:18:37;;;;;;;6.57;1.98;;;25.90;86.90;;;;;;5078787;28;19928;-81
2022/06/17 12:21:32;;;;;;;3.25;2.47;;;25.90;87.00;;;;;;5060902;28;20044;-81
2022/06/17 12:24:39;;;;;;;4.95;2.05;;;26.00;86.50;;;;;;5063763;28;20071;-81
2022/06/17 12:27:24;;;;;;;3.67;2.30;;;26.00;86.30;;;;;;5057505;28;20141;-83
2022/06/17 12:30:05;;;;;;;3.13;2.08;;;26.10;86.40;;;;;;5059998;28;20056;-81
2022/06/17 12:32:38;;;;;;;3.20;2.15;;;26.20;86.50;;;;;;5058947;28;20124;-81
2022/06/17 12:35:33;;;;;;;5.97;2.35;;;26.20;86.40;;;;;;5078512;27;20502;-81
2022/06/17 12:38:09;;;;;;;2.80;2.38;;;26.30;86.00;;;;;;5058533;28;20625;-81
2022/06/17 12:41:05;;;;;;;3.13;2.33;;;26.30;85.90;;;;;;5062798;28;20043;-81
2022/06/17 12:43:36;;;;;;;4.50;1.92;;;26.30;85.80;;;;;;5062975;28;20096;-83
2022/06/17 12:46:32;;;;;;;3.15;2.17;;;26.40;85.60;;;;;;5078988;28;20048;-84
2022/06/17 12:55:36;;;;;;;5.78;2.75;;;26.60;85.10;;;;;;5063120;28;20041;-82
2022/06/17 12:58:30;;;;;;;5.13;2.10;;;26.60;85.00;;;;;;5060712;28;20503;-82
2022/06/17 13:01:19;;;;;;;3.33;1.98;;;26.60;84.90;;;;;;5062246;28;20044;-81
2022/06/17 13:04:12;;;;;;;4.25;1.88;;;26.60;84.90;;;;;;5059239;28;20044;-81
2022/06/17 13:06:53;;;;;;;4.70;2.83;;;26.60;84.90;;;;;;5062195;28;20122;-86
2022/06/17 13:09:23;;;;;;;3.67;2.05;;;26.60;84.60;;;;;;5062016;28;20083;-81
2022/06/17 13:12:07;;;;;;;3.60;2.30;;;26.70;84.60;;;;;;5062845;28;20037;-80
2022/06/17 13:14:35;;;;;;;2.88;2.00;;;26.70;84.40;;;;;;5061656;28;20263;-80
2022/06/17 13:17:25;;;;;;;3.00;2.45;;;26.80;84.40;;;;;;5063013;28;20075;-81
2022/06/17 13:20:12;;;;;;;2.78;2.10;;;26.80;84.10;;;;;;5074300;28;20056;-80
2022/06/17 13:22:57;;;;;;;3.20;2.30;;;26.80;83.90;;;;;;5060971;28;20140;-80
2022/06/17 13:25:46;;;;;;;4.85;1.92;;;26.90;84.00;;;;;;5061188;28;20561;-80
2022/06/17 13:28:49;;;;;;;4.30;2.20;;;26.90;83.70;;;;;;5061340;28;20033;-80
2022/06/17 13:31:25;;;;;;;3.63;1.73;;;27.00;83.20;;;;;;5036469;28;20061;-81
2022/06/17 13:34:03;;;;;;;2.88;1.92;;;27.00;82.70;;;;;;5061468;28;20118;-81
2022/06/17 13:36:58;;;;;;;3.45;1.92;;;27.10;82.70;;;;;;5057753;28;20103;-81
2022/06/17 13:39:29;;;;;;;3.33;1.70;;;27.10;82.80;;;;;;5062749;28;20538;-80